createdAt,value
2022-10-29T00:01:47.757Z,96.20
2022-10-29T00:04:17.401Z,96.20
2022-10-29T00:06:47.023Z,96.20
2022-10-29T00:09:16.793Z,96.20
2022-10-29T00:11:46.316Z,96.20
2022-10-29T00:14:15.825Z,96.30
2022-10-29T00:16:45.352Z,96.20
2022-10-29T00:19:14.858Z,96.20
2022-10-29T00:21:44.379Z,96.20
2022-10-29T00:24:14.056Z,96.30
2022-10-29T00:26:43.688Z,96.30
2022-10-29T00:29:13.229Z,96.30
2022-10-29T00:31:43.206Z,96.30
2022-10-29T00:34:12.900Z,96.40
2022-10-29T00:36:42.387Z,96.30
2022-10-29T00:39:19.657Z,96.30
2022-10-29T00:41:49.173Z,96.30
2022-10-29T00:44:33.568Z,96.30
2022-10-29T00:47:39.170Z,96.40
2022-10-29T00:50:13.517Z,96.40
2022-10-29T00:52:47.641Z,96.40
2022-10-29T00:55:18.047Z,96.40
2022-10-29T00:57:53.535Z,96.40
2022-10-29T01:00:23.905Z,96.30
2022-10-29T01:02:53.670Z,96.40
2022-10-29T01:05:27.594Z,96.30
2022-10-29T01:07:57.105Z,96.20
2022-10-29T01:10:50.877Z,96.20
2022-10-29T01:13:55.582Z,96.20
2022-10-29T01:16:49.470Z,96.20
2022-10-29T01:19:58.104Z,96.20
2022-10-29T01:22:51.231Z,96.20
2022-10-29T01:25:47.800Z,96.10
2022-10-29T01:28:56.728Z,96.10
2022-10-29T01:31:45.446Z,96.10
2022-10-29T01:34:32.859Z,96.00
2022-10-29T01:37:19.555Z,96.00
2022-10-29T01:40:19.021Z,96.00
2022-10-29T01:42:55.935Z,95.80
2022-10-29T01:45:35.898Z,95.60
2022-10-29T01:48:12.325Z,95.50
2022-10-29T01:50:45.298Z,95.40
2022-10-29T01:53:15.530Z,95.30
2022-10-29T01:55:45.285Z,94.90
2022-10-29T02:01:20.675Z,94.30
2022-10-29T02:04:15.443Z,94.10
2022-10-29T02:07:00.795Z,93.90
2022-10-29T02:09:44.067Z,93.70
2022-10-29T02:12:28.826Z,93.20
2022-10-29T02:15:14.569Z,93.30
2022-10-29T02:17:44.459Z,93.10
2022-10-29T02:20:16.240Z,92.80
2022-10-29T02:22:46.777Z,92.60
2022-10-29T02:25:16.722Z,92.50
2022-10-29T02:27:46.587Z,92.30
2022-10-29T02:30:17.292Z,92.10
2022-10-29T02:32:46.885Z,91.90
2022-10-29T02:35:16.484Z,91.80
2022-10-29T02:37:46.095Z,91.90
2022-10-29T02:40:15.942Z,91.60
2022-10-29T02:42:45.885Z,91.60
2022-10-29T02:45:15.452Z,91.50
2022-10-29T02:47:44.989Z,91.50
2022-10-29T02:50:14.606Z,91.40
2022-10-29T02:52:44.212Z,91.40
2022-10-29T02:55:13.652Z,90.80
2022-10-29T02:57:46.588Z,90.80
2022-10-29T03:00:16.749Z,90.50
2022-10-29T03:02:46.596Z,90.60
2022-10-29T03:05:16.194Z,90.40
2022-10-29T03:07:45.736Z,90.40
2022-10-29T03:10:15.237Z,90.00
2022-10-29T03:12:44.804Z,90.20
2022-10-29T03:15:14.293Z,90.00
2022-10-29T03:17:43.814Z,89.70
2022-10-29T03:20:13.554Z,89.60
2022-10-29T03:22:43.094Z,88.90
2022-10-29T03:25:12.883Z,88.50
2022-10-29T03:27:46.806Z,88.50
2022-10-29T03:30:18.809Z,88.50
2022-10-29T03:32:49.825Z,88.10
2022-10-29T03:35:19.341Z,88.00
2022-10-29T03:37:52.699Z,87.00
2022-10-29T03:40:22.563Z,87.50
2022-10-29T03:42:52.101Z,87.00
2022-10-29T03:45:21.608Z,86.60
2022-10-29T03:47:51.131Z,87.20
2022-10-29T03:50:20.930Z,87.30
2022-10-29T03:52:50.516Z,87.00
2022-10-29T03:55:20.055Z,86.60
2022-10-29T03:57:49.587Z,86.60
2022-10-29T04:00:19.328Z,86.00
2022-10-29T04:02:49.100Z,86.30
2022-10-29T04:05:18.647Z,86.20
2022-10-29T04:07:48.494Z,85.90
2022-10-29T04:10:18.061Z,85.90
2022-10-29T04:12:48.450Z,85.60
2022-10-29T04:15:18.065Z,85.20
2022-10-29T04:17:47.605Z,84.50
2022-10-29T04:20:41.308Z,84.40
2022-10-29T04:24:12.249Z,84.40
2022-10-29T04:28:52.830Z,83.60
2022-10-29T04:31:22.640Z,83.20
2022-10-29T04:33:56.001Z,82.80
2022-10-29T04:36:25.878Z,82.70
2022-10-29T04:38:55.704Z,82.80
2022-10-29T04:41:25.534Z,82.80
2022-10-29T04:43:55.412Z,82.20
2022-10-29T04:46:25.334Z,82.10
2022-10-29T04:48:55.243Z,81.90
2022-10-29T04:51:27.312Z,81.90
2022-10-29T04:53:57.167Z,82.10
2022-10-29T04:56:27.090Z,82.00
2022-10-29T04:58:56.894Z,81.40
2022-10-29T05:01:26.936Z,81.50
2022-10-29T05:03:59.872Z,81.10
2022-10-29T05:06:30.152Z,80.80
2022-10-29T05:09:00.054Z,80.70
2022-10-29T05:11:29.994Z,80.40
2022-10-29T05:13:59.847Z,80.10
2022-10-29T05:16:29.642Z,79.80
2022-10-29T05:18:59.487Z,80.00
2022-10-29T05:21:29.569Z,79.60
2022-10-29T05:23:59.508Z,79.30
2022-10-29T05:26:31.854Z,79.00
2022-10-29T05:29:01.993Z,79.10
2022-10-29T05:31:32.389Z,78.90
2022-10-29T05:34:02.213Z,78.30
2022-10-29T05:36:31.686Z,78.60
2022-10-29T05:39:01.296Z,78.50
2022-10-29T05:41:30.935Z,77.80
2022-10-29T05:44:00.449Z,76.40
2022-10-29T05:46:30.020Z,76.90
2022-10-29T05:48:59.926Z,77.10
2022-10-29T05:51:29.492Z,76.80
2022-10-29T05:53:58.981Z,76.90
2022-10-29T05:56:28.894Z,77.00
2022-10-29T05:58:58.390Z,77.20
2022-10-29T06:01:27.905Z,76.90
2022-10-29T06:03:57.535Z,76.70
2022-10-29T06:06:27.039Z,76.60
2022-10-29T06:08:56.609Z,76.40
2022-10-29T06:11:26.161Z,76.40
2022-10-29T06:13:58.908Z,76.30
2022-10-29T06:16:28.366Z,76.40
2022-10-29T06:18:58.252Z,76.60
2022-10-29T06:21:27.759Z,76.90
2022-10-29T06:23:57.412Z,77.10
2022-10-29T06:26:26.899Z,76.80
2022-10-29T06:28:56.423Z,77.00
2022-10-29T06:31:26.893Z,77.20
2022-10-29T06:33:57.576Z,77.20
2022-10-29T06:36:27.107Z,77.10
2022-10-29T06:38:57.631Z,77.10
2022-10-29T06:41:28.777Z,76.80
2022-10-29T06:43:58.291Z,76.80
2022-10-29T06:46:27.841Z,76.60
2022-10-29T06:48:57.453Z,76.80
2022-10-29T06:51:26.969Z,76.40
2022-10-29T06:53:56.593Z,76.30
2022-10-29T06:56:26.150Z,76.10
2022-10-29T06:58:55.687Z,76.20
2022-10-29T07:01:27.704Z,75.70
2022-10-29T07:04:06.881Z,75.90
2022-10-29T07:06:36.895Z,75.70
2022-10-29T07:09:06.511Z,76.20
2022-10-29T07:11:36.011Z,75.20
2022-10-29T07:14:07.538Z,75.10
2022-10-29T07:16:37.806Z,75.70
2022-10-29T07:19:07.461Z,75.80
2022-10-29T07:21:40.004Z,75.60
2022-10-29T07:24:09.865Z,75.60
2022-10-29T07:26:40.529Z,75.80
2022-10-29T07:29:11.147Z,75.90
2022-10-29T07:31:41.084Z,75.40
2022-10-29T07:34:11.093Z,75.20
2022-10-29T07:36:40.996Z,75.00
2022-10-29T07:39:10.869Z,75.00
2022-10-29T07:41:40.714Z,75.00
2022-10-29T07:44:10.704Z,75.00
2022-10-29T07:46:40.622Z,75.20
2022-10-29T07:49:10.553Z,75.30
2022-10-29T07:51:40.441Z,75.00
2022-10-29T07:54:14.576Z,75.00
2022-10-29T07:56:47.601Z,75.10
2022-10-29T07:59:19.429Z,74.80
2022-10-29T08:01:49.519Z,74.80
2022-10-29T08:04:19.599Z,74.40
2022-10-29T08:06:49.502Z,74.50
2022-10-29T08:09:19.309Z,74.60
2022-10-29T08:11:49.178Z,74.70
2022-10-29T08:14:21.746Z,74.60
2022-10-29T08:16:54.971Z,74.40
2022-10-29T08:19:25.249Z,74.40
2022-10-29T08:21:55.069Z,74.50
2022-10-29T08:24:25.441Z,73.90
2022-10-29T08:26:57.975Z,73.90
2022-10-29T08:29:28.792Z,73.70
2022-10-29T08:31:59.041Z,73.40
2022-10-29T08:34:28.871Z,73.30
2022-10-29T08:36:58.775Z,73.50
2022-10-29T08:39:28.571Z,73.60
2022-10-29T08:42:24.578Z,73.90
2022-10-29T08:45:33.210Z,73.90
2022-10-29T08:48:27.045Z,74.10
2022-10-29T08:51:05.628Z,74.20
2022-10-29T08:53:45.375Z,74.40
2022-10-29T08:56:27.233Z,74.30
2022-10-29T08:59:18.209Z,74.30
2022-10-29T09:01:48.623Z,74.20
2022-10-29T09:04:26.814Z,74.30
2022-10-29T09:07:23.916Z,74.40
2022-10-29T09:10:27.801Z,74.40
2022-10-29T09:13:31.883Z,74.50
2022-10-29T09:16:23.580Z,74.40
2022-10-29T09:19:28.108Z,74.60
2022-10-29T09:22:28.540Z,74.80
2022-10-29T09:25:33.927Z,74.90
2022-10-29T09:28:28.668Z,75.30
2022-10-29T09:31:26.209Z,75.70
2022-10-29T09:34:00.877Z,76.10
2022-10-29T09:36:35.488Z,76.40
2022-10-29T09:39:30.308Z,76.80
2022-10-29T09:42:10.496Z,76.80
2022-10-29T09:44:55.735Z,77.20
2022-10-29T09:47:53.294Z,77.70
2022-10-29T09:50:35.279Z,77.80
2022-10-29T09:53:05.331Z,78.30
2022-10-29T09:55:46.446Z,78.50
2022-10-29T09:58:27.115Z,78.90
2022-10-29T10:00:58.857Z,79.30
2022-10-29T10:03:38.872Z,79.40
2022-10-29T10:06:10.896Z,79.20
2022-10-29T10:09:07.228Z,79.20
2022-10-29T10:11:41.914Z,78.90
2022-10-29T10:14:23.721Z,78.90
2022-10-29T10:17:09.202Z,78.80
2022-10-29T10:19:47.043Z,78.80
2022-10-29T10:22:26.488Z,78.80
2022-10-29T10:24:56.405Z,78.80
2022-10-29T10:27:33.319Z,79.00
2022-10-29T10:30:25.230Z,79.00
2022-10-29T10:32:55.360Z,79.00
2022-10-29T10:35:31.929Z,79.20
2022-10-29T10:38:14.495Z,79.30
2022-10-29T10:40:45.249Z,79.40
2022-10-29T10:43:25.519Z,79.60
2022-10-29T10:46:00.090Z,79.80
2022-10-29T10:48:33.788Z,79.80
2022-10-29T10:51:30.448Z,79.90
2022-10-29T10:54:02.393Z,80.00
2022-10-29T10:56:32.826Z,80.10
2022-10-29T10:59:15.290Z,80.10
2022-10-29T11:01:48.371Z,80.10
2022-10-29T11:04:31.344Z,80.30
2022-10-29T11:07:04.613Z,80.20
2022-10-29T11:09:48.653Z,80.30
2022-10-29T11:12:48.870Z,80.50
2022-10-29T11:15:35.508Z,80.50
2022-10-29T11:18:24.078Z,80.50
2022-10-29T11:21:11.686Z,80.70
2022-10-29T11:24:14.250Z,80.70
2022-10-29T11:27:05.028Z,80.80
2022-10-29T11:30:13.735Z,81.00
2022-10-29T11:33:00.723Z,80.90
2022-10-29T11:35:57.449Z,80.90
2022-10-29T11:38:47.489Z,81.10
2022-10-29T11:41:44.842Z,81.30
2022-10-29T11:44:17.393Z,81.40
2022-10-29T11:47:23.002Z,81.50
2022-10-29T11:50:18.961Z,81.70
2022-10-29T11:53:09.889Z,81.80
2022-10-29T11:56:10.969Z,82.00
2022-10-29T11:58:59.466Z,82.20
2022-10-29T12:01:54.075Z,82.30
2022-10-29T12:04:36.864Z,82.50
2022-10-29T12:07:34.805Z,82.80
2022-10-29T12:10:33.294Z,83.10
2022-10-29T12:13:31.468Z,83.50
2022-10-29T12:16:16.548Z,83.60
2022-10-29T12:19:13.205Z,84.10
2022-10-29T12:22:10.692Z,84.50
2022-10-29T12:25:09.795Z,84.80
2022-10-29T12:28:21.229Z,85.30
2022-10-29T12:31:22.955Z,85.50
2022-10-29T12:34:08.551Z,86.10
2022-10-29T12:37:05.602Z,86.20
2022-10-29T12:39:42.519Z,87.20
2022-10-29T12:42:31.887Z,86.70
2022-10-29T12:45:59.533Z,86.80
2022-10-29T12:49:03.903Z,87.00
2022-10-29T12:51:52.364Z,87.10
2022-10-29T12:54:43.993Z,87.20
2022-10-29T12:57:34.541Z,87.50
2022-10-29T13:00:34.567Z,87.50
2022-10-29T13:03:04.992Z,87.70
2022-10-29T13:05:41.613Z,87.90
2022-10-29T13:08:20.760Z,88.10
2022-10-29T13:10:53.575Z,88.30
2022-10-29T13:13:37.462Z,88.60
2022-10-29T13:16:18.349Z,89.00
2022-10-29T13:19:10.626Z,89.20
2022-10-29T13:22:01.354Z,89.60
2022-10-29T13:24:31.924Z,89.90
2022-10-29T13:27:22.650Z,90.00
2022-10-29T13:30:13.695Z,90.00
2022-10-29T13:32:43.227Z,90.50
2022-10-29T13:35:47.330Z,90.30
2022-10-29T13:38:17.834Z,90.50
2022-10-29T13:41:09.767Z,90.50
2022-10-29T13:43:39.755Z,90.60
2022-10-29T13:46:31.343Z,90.70
2022-10-29T13:49:05.347Z,90.80
2022-10-29T13:51:46.666Z,90.90
2022-10-29T13:54:29.378Z,91.00
2022-10-29T13:57:10.335Z,91.00
2022-10-29T14:00:02.535Z,91.10
2022-10-29T14:03:14.948Z,91.20
2022-10-29T14:05:55.253Z,91.30
2022-10-29T14:08:37.397Z,91.30
2022-10-29T14:11:29.018Z,91.40
2022-10-29T14:14:04.837Z,91.50
2022-10-29T14:16:35.650Z,91.60
2022-10-29T14:19:24.970Z,91.70
2022-10-29T14:21:56.953Z,91.80
2022-10-29T14:24:26.711Z,91.80
2022-10-29T14:27:09.335Z,91.80
2022-10-29T14:29:40.006Z,91.90
2022-10-29T14:32:20.229Z,92.00
2022-10-29T14:34:54.093Z,92.00
2022-10-29T14:37:37.149Z,92.00
2022-10-29T14:40:17.686Z,92.10
2022-10-29T14:42:57.056Z,92.10
2022-10-29T14:45:30.076Z,92.20
2022-10-29T14:48:13.405Z,92.30
2022-10-29T14:50:52.172Z,92.40
2022-10-29T14:53:34.016Z,92.40
2022-10-29T14:56:10.352Z,92.40
2022-10-29T14:58:40.956Z,92.40
2022-10-29T15:01:17.896Z,92.50
2022-10-29T15:03:48.310Z,92.60
2022-10-29T15:06:27.192Z,92.60
2022-10-29T15:09:02.835Z,92.60
2022-10-29T15:11:41.633Z,92.70
2022-10-29T15:14:38.454Z,92.70
2022-10-29T15:17:22.913Z,92.80
2022-10-29T15:20:03.277Z,92.80
2022-10-29T15:22:37.611Z,92.80
2022-10-29T15:25:10.601Z,92.90
2022-10-29T15:27:42.060Z,92.90
2022-10-29T15:30:22.003Z,92.90
2022-10-29T15:32:51.930Z,92.90
2022-10-29T15:35:23.420Z,92.90
2022-10-29T15:37:53.335Z,92.80
2022-10-29T15:40:25.681Z,93.20
2022-10-29T15:42:56.078Z,92.80
2022-10-29T15:45:28.850Z,92.80
2022-10-29T15:48:19.666Z,92.80
2022-10-29T15:50:49.557Z,92.90
2022-10-29T15:53:19.725Z,92.90
2022-10-29T15:55:55.333Z,93.00
2022-10-29T15:58:26.045Z,93.00
2022-10-29T16:00:55.898Z,93.00
2022-10-29T16:03:28.067Z,93.00
2022-10-29T16:06:03.474Z,93.10
2022-10-29T16:09:01.499Z,93.10
2022-10-29T16:11:31.373Z,93.20
2022-10-29T16:14:01.980Z,93.30
2022-10-29T16:16:34.321Z,93.30
2022-10-29T16:19:04.943Z,93.30
2022-10-29T16:21:35.036Z,93.30
2022-10-29T16:24:04.956Z,93.30
2022-10-29T16:26:35.834Z,93.30
2022-10-29T16:29:05.831Z,93.30
2022-10-29T16:31:35.934Z,93.40
2022-10-29T16:34:07.731Z,93.40
2022-10-29T16:36:37.593Z,93.40
2022-10-29T16:39:09.027Z,93.50
2022-10-29T16:41:38.874Z,93.40
2022-10-29T16:44:08.787Z,93.40
2022-10-29T16:46:38.594Z,93.40
2022-10-29T16:49:09.060Z,93.40
2022-10-29T16:51:38.892Z,93.40
2022-10-29T16:54:08.834Z,93.50
2022-10-29T16:56:38.693Z,93.50
2022-10-29T16:59:08.637Z,93.50
2022-10-29T17:01:38.545Z,93.50
2022-10-29T17:04:09.871Z,93.40
2022-10-29T17:06:39.735Z,93.50
2022-10-29T17:09:09.628Z,93.60
2022-10-29T17:11:39.513Z,93.60
2022-10-29T17:14:09.646Z,93.60
2022-10-29T17:16:39.517Z,93.60
2022-10-29T17:19:09.452Z,93.60
2022-10-29T17:21:39.398Z,93.60
2022-10-29T17:24:09.554Z,93.60
2022-10-29T17:26:39.484Z,93.90
2022-10-29T17:29:09.465Z,93.70
2022-10-29T17:31:39.629Z,93.70
2022-10-29T17:34:09.513Z,93.70
2022-10-29T17:36:42.627Z,93.80
2022-10-29T17:39:13.360Z,93.80
2022-10-29T17:41:43.259Z,93.80
2022-10-29T17:44:13.130Z,93.80
2022-10-29T17:46:43.090Z,93.80
2022-10-29T17:49:13.530Z,93.80
2022-10-29T17:51:43.320Z,93.80
2022-10-29T17:54:18.431Z,93.80
2022-10-29T17:56:48.252Z,93.80
2022-10-29T17:59:18.033Z,93.80
2022-10-29T18:01:47.982Z,93.80
2022-10-29T18:04:18.027Z,93.80
2022-10-29T18:06:47.947Z,93.90
2022-10-29T18:09:20.351Z,93.80
2022-10-29T18:11:52.030Z,93.90
2022-10-29T18:14:21.875Z,94.00
2022-10-29T18:16:51.713Z,94.10
2022-10-29T18:19:21.769Z,94.20
2022-10-29T18:21:52.354Z,94.30
2022-10-29T18:24:23.986Z,94.30
2022-10-29T18:26:54.333Z,94.30
2022-10-29T18:29:24.271Z,94.20
2022-10-29T18:31:53.779Z,94.20
2022-10-29T18:34:23.625Z,94.20
2022-10-29T18:36:53.187Z,94.20
2022-10-29T18:39:22.685Z,94.30
2022-10-29T18:41:52.211Z,94.30
2022-10-29T18:44:21.823Z,94.30
2022-10-29T18:46:51.421Z,94.30
2022-10-29T18:49:21.891Z,94.20
2022-10-29T18:51:52.225Z,94.30
2022-10-29T18:54:22.235Z,94.30
2022-10-29T18:56:52.168Z,94.30
2022-10-29T18:59:23.167Z,94.30
2022-10-29T19:01:53.239Z,94.30
2022-10-29T19:04:23.293Z,94.30
2022-10-29T19:06:53.106Z,94.40
2022-10-29T19:09:22.960Z,94.40
2022-10-29T19:11:56.731Z,94.40
2022-10-29T19:14:29.277Z,94.40
2022-10-29T19:16:59.212Z,94.50
2022-10-29T19:19:29.148Z,94.40
2022-10-29T19:21:59.107Z,94.50
2022-10-29T19:24:28.965Z,94.50
2022-10-29T19:26:58.871Z,94.50
2022-10-29T19:29:28.937Z,94.50
2022-10-29T19:31:59.276Z,94.60
2022-10-29T19:34:28.891Z,94.60
2022-10-29T19:36:58.480Z,94.60
2022-10-29T19:39:27.971Z,94.60
2022-10-29T19:41:57.500Z,94.60
2022-10-29T19:44:27.027Z,94.60
2022-10-29T19:46:56.594Z,94.60
2022-10-29T19:49:26.115Z,94.70
2022-10-29T19:51:58.069Z,94.70
2022-10-29T19:54:27.613Z,94.70
2022-10-29T19:56:57.203Z,94.80
2022-10-29T19:59:26.759Z,94.80
2022-10-29T20:01:56.391Z,94.90
2022-10-29T20:04:25.995Z,94.90
2022-10-29T20:06:55.545Z,94.90
2022-10-29T20:09:25.123Z,94.90
2022-10-29T20:11:54.712Z,95.00
2022-10-29T20:14:28.762Z,95.00
2022-10-29T20:16:58.612Z,95.00
2022-10-29T20:19:28.161Z,95.00
2022-10-29T20:21:57.839Z,95.10
2022-10-29T20:24:27.400Z,95.10
2022-10-29T20:26:56.876Z,95.20
2022-10-29T20:29:26.510Z,95.20
2022-10-29T20:31:56.490Z,95.20
2022-10-29T20:34:26.506Z,95.30
2022-10-29T20:36:56.245Z,95.30
2022-10-29T20:39:30.777Z,95.30
2022-10-29T20:42:02.971Z,95.30
2022-10-29T20:44:32.499Z,95.30
2022-10-29T20:47:02.362Z,95.50
2022-10-29T20:49:31.919Z,95.40
2022-10-29T20:52:01.452Z,95.40
2022-10-29T20:54:30.966Z,95.40
2022-10-29T20:57:00.445Z,95.40
2022-10-29T20:59:29.986Z,95.40
2022-10-29T21:02:00.099Z,95.40
2022-10-29T21:04:29.782Z,95.70
2022-10-29T21:06:59.315Z,95.40
2022-10-29T21:09:28.846Z,95.50
2022-10-29T21:11:58.412Z,95.50
2022-10-29T21:14:29.099Z,95.50
2022-10-29T21:16:58.646Z,95.50
2022-10-29T21:19:29.819Z,95.50
2022-10-29T21:21:59.295Z,95.50
2022-10-29T21:24:28.812Z,95.50
2022-10-29T21:26:58.311Z,95.50
2022-10-29T21:29:28.111Z,95.80
2022-10-29T21:31:58.192Z,95.50
2022-10-29T21:34:27.768Z,95.60
2022-10-29T21:36:57.368Z,95.60
2022-10-29T21:39:28.030Z,95.60
2022-10-29T21:41:58.103Z,95.60
2022-10-29T21:44:27.631Z,95.70
2022-10-29T21:46:57.140Z,96.00
2022-10-29T21:49:26.851Z,95.70
2022-10-29T21:51:56.334Z,95.70
2022-10-29T21:54:28.315Z,95.70
2022-10-29T21:56:58.365Z,95.70
2022-10-29T21:59:27.793Z,95.70
2022-10-29T22:01:57.364Z,95.70
2022-10-29T22:04:27.188Z,95.70
2022-10-29T22:06:57.612Z,95.80
2022-10-29T22:09:27.128Z,95.80
2022-10-29T22:11:56.804Z,95.80
2022-10-29T22:14:26.378Z,95.80
2022-10-29T22:16:58.373Z,95.80
2022-10-29T22:19:27.891Z,95.80
2022-10-29T22:21:57.734Z,95.80
2022-10-29T22:24:27.195Z,95.80
2022-10-29T22:26:56.733Z,95.80
2022-10-29T22:29:26.273Z,95.80
2022-10-29T22:31:56.093Z,95.80
2022-10-29T22:34:26.562Z,95.80
2022-10-29T22:36:56.479Z,95.80
2022-10-29T22:39:28.653Z,95.90
2022-10-29T22:41:58.493Z,95.90
2022-10-29T22:44:28.246Z,95.90
2022-10-29T22:46:58.166Z,95.90
2022-10-29T22:49:28.080Z,96.00
2022-10-29T22:52:00.587Z,96.00
2022-10-29T22:54:31.702Z,96.00
2022-10-29T22:57:01.585Z,96.00
2022-10-29T22:59:31.446Z,96.00
2022-10-29T23:02:01.323Z,96.00
2022-10-29T23:04:31.265Z,96.00
2022-10-29T23:07:02.738Z,96.00
2022-10-29T23:09:32.519Z,96.00
2022-10-29T23:12:02.419Z,96.00
2022-10-29T23:14:32.265Z,96.00
2022-10-29T23:17:02.095Z,96.10
2022-10-29T23:19:32.010Z,96.10
2022-10-29T23:22:01.953Z,96.20
2022-10-29T23:24:31.813Z,96.20
2022-10-29T23:27:01.644Z,96.20
2022-10-29T23:29:31.510Z,96.20
2022-10-29T23:32:01.594Z,96.20
2022-10-29T23:34:31.542Z,96.20
2022-10-29T23:37:03.218Z,96.20
2022-10-29T23:39:35.206Z,96.30
2022-10-29T23:42:04.760Z,96.30
2022-10-29T23:44:34.351Z,96.40
2022-10-29T23:47:03.871Z,96.50
2022-10-29T23:49:33.335Z,96.50
2022-10-29T23:52:02.875Z,96.50
2022-10-29T23:54:32.380Z,96.50
2022-10-29T23:57:01.959Z,96.60
2022-10-29T23:59:31.463Z,96.60
